createdAt,value
2019-05-19T00:00:50.242Z,17.73
2019-05-19T00:01:55.629Z,17.73
2019-05-19T00:03:01.243Z,17.72
2019-05-19T00:04:06.706Z,17.73
2019-05-19T00:05:12.523Z,17.73
2019-05-19T00:06:17.843Z,17.74
2019-05-19T00:07:23.620Z,17.73
2019-05-19T00:08:28.922Z,17.72
2019-05-19T00:09:34.047Z,17.72
2019-05-19T00:10:40.086Z,17.72
2019-05-19T00:11:45.238Z,17.70
2019-05-19T00:12:50.632Z,17.71
2019-05-19T00:13:56.048Z,17.70
2019-05-19T00:15:01.676Z,17.71
2019-05-19T00:16:06.897Z,17.72
2019-05-19T00:17:12.370Z,17.72
2019-05-19T00:18:17.472Z,17.72
2019-05-19T00:19:26.767Z,17.71
2019-05-19T00:20:30.115Z,17.73
2019-05-19T00:21:35.501Z,17.72
2019-05-19T00:22:40.748Z,17.72
2019-05-19T00:23:46.097Z,17.72
2019-05-19T00:24:51.335Z,17.73
2019-05-19T00:25:56.974Z,17.72
2019-05-19T00:27:02.180Z,17.72
2019-05-19T00:28:07.665Z,17.73
2019-05-19T00:29:12.865Z,17.73
2019-05-19T00:30:18.396Z,17.74
2019-05-19T00:31:24.053Z,17.74
2019-05-19T00:32:29.387Z,17.74
2019-05-19T00:33:35.357Z,17.73
2019-05-19T00:34:41.258Z,17.73
2019-05-19T00:35:46.441Z,17.71
2019-05-19T00:36:51.755Z,17.71
2019-05-19T00:37:57.434Z,17.70
2019-05-19T00:39:02.722Z,17.68
2019-05-19T00:40:08.487Z,17.67
2019-05-19T00:41:13.923Z,17.66
2019-05-19T00:42:19.529Z,17.66
2019-05-19T00:43:25.199Z,17.64
2019-05-19T00:44:31.110Z,17.62
2019-05-19T00:45:36.572Z,17.61
2019-05-19T00:46:41.875Z,17.61
2019-05-19T00:47:47.255Z,17.59
2019-05-19T00:48:52.915Z,17.57
2019-05-19T00:49:58.243Z,17.56
2019-05-19T00:51:03.532Z,17.54
2019-05-19T00:52:08.816Z,17.52
2019-05-19T00:53:14.408Z,17.50
2019-05-19T00:54:20.282Z,17.48
2019-05-19T00:55:25.629Z,17.45
2019-05-19T00:56:31.507Z,17.46
2019-05-19T00:57:38.266Z,17.45
2019-05-19T00:58:45.527Z,17.43
2019-05-19T00:59:52.210Z,17.41
2019-05-19T01:00:57.891Z,17.38
2019-05-19T01:02:03.489Z,17.36
2019-05-19T01:03:08.842Z,17.34
2019-05-19T01:04:14.058Z,17.32
2019-05-19T01:05:20.797Z,17.30
2019-05-19T01:06:26.041Z,17.29
2019-05-19T01:07:32.071Z,17.27
2019-05-19T01:08:37.209Z,17.24
2019-05-19T01:09:42.664Z,17.23
2019-05-19T01:10:48.191Z,17.22
2019-05-19T01:11:53.908Z,17.21
2019-05-19T01:12:59.126Z,17.21
2019-05-19T01:14:04.883Z,17.20
2019-05-19T01:15:11.146Z,17.19
2019-05-19T01:16:17.177Z,17.17
2019-05-19T01:17:22.675Z,17.16
2019-05-19T01:18:28.266Z,17.15
2019-05-19T01:19:33.929Z,17.13
2019-05-19T01:20:39.455Z,17.13
2019-05-19T01:21:45.594Z,17.13
2019-05-19T01:22:51.078Z,17.13
2019-05-19T01:23:56.967Z,17.13
2019-05-19T01:25:02.296Z,17.12
2019-05-19T01:26:07.531Z,17.11
2019-05-19T01:27:12.953Z,17.10
2019-05-19T01:28:18.380Z,17.10
2019-05-19T01:29:23.713Z,17.10
2019-05-19T01:30:28.944Z,17.08
2019-05-19T01:31:36.429Z,17.08
2019-05-19T01:32:41.923Z,17.07
2019-05-19T01:33:47.233Z,17.07
2019-05-19T01:34:52.679Z,17.06
2019-05-19T01:35:58.264Z,17.06
2019-05-19T01:37:03.410Z,17.07
2019-05-19T01:38:08.744Z,17.05
2019-05-19T01:39:13.961Z,17.03
2019-05-19T01:40:19.632Z,17.03
2019-05-19T01:41:24.789Z,17.04
2019-05-19T01:42:30.099Z,17.03
2019-05-19T01:43:35.334Z,17.04
2019-05-19T01:44:40.981Z,17.05
2019-05-19T01:45:46.188Z,17.05
2019-05-19T01:46:51.494Z,17.06
2019-05-19T01:47:56.969Z,17.05
2019-05-19T01:49:02.348Z,17.04
2019-05-19T01:50:17.405Z,17.02
2019-05-19T01:51:15.271Z,17.01
2019-05-19T01:52:20.500Z,17.00
2019-05-19T01:53:25.921Z,16.99
2019-05-19T01:54:31.184Z,16.98
2019-05-19T01:55:36.860Z,16.98
2019-05-19T01:56:42.658Z,16.96
2019-05-19T01:57:48.303Z,16.95
2019-05-19T01:58:53.433Z,16.94
2019-05-19T01:59:58.833Z,16.92
2019-05-19T02:01:04.135Z,16.92
2019-05-19T02:02:09.574Z,16.92
2019-05-19T02:03:14.781Z,16.93
2019-05-19T02:04:20.086Z,16.93
2019-05-19T02:05:25.233Z,16.92
2019-05-19T02:06:30.568Z,16.92
2019-05-19T02:07:35.880Z,16.90
2019-05-19T02:08:41.284Z,16.89
2019-05-19T02:09:46.553Z,16.89
2019-05-19T02:10:52.241Z,16.89
2019-05-19T02:11:57.734Z,16.88
2019-05-19T02:13:05.176Z,16.88
2019-05-19T02:14:10.005Z,16.86
2019-05-19T02:15:16.999Z,16.85
2019-05-19T02:16:22.109Z,16.85
2019-05-19T02:17:27.422Z,16.83
2019-05-19T02:18:35.415Z,16.82
2019-05-19T02:19:41.257Z,16.80
2019-05-19T02:20:47.640Z,16.79
2019-05-19T02:21:53.347Z,16.78
2019-05-19T02:22:58.543Z,16.77
2019-05-19T02:24:04.020Z,16.77
2019-05-19T02:25:09.639Z,16.76
2019-05-19T02:26:14.962Z,16.76
2019-05-19T02:27:20.075Z,16.76
2019-05-19T02:28:25.454Z,16.75
2019-05-19T02:29:30.878Z,16.76
2019-05-19T02:30:36.390Z,16.76
2019-05-19T02:31:41.612Z,16.75
2019-05-19T02:32:46.910Z,16.76
2019-05-19T02:33:52.333Z,16.74
2019-05-19T02:34:57.898Z,16.74
2019-05-19T02:36:03.090Z,16.71
2019-05-19T02:37:08.750Z,16.69
2019-05-19T02:38:14.289Z,16.66
2019-05-19T02:39:20.212Z,16.64
2019-05-19T02:40:25.600Z,16.62
2019-05-19T02:41:32.857Z,16.61
2019-05-19T02:42:41.590Z,16.59
2019-05-19T02:43:48.302Z,16.57
2019-05-19T02:44:54.003Z,16.54
2019-05-19T02:46:02.209Z,16.52
2019-05-19T02:47:09.295Z,16.52
2019-05-19T02:48:15.190Z,16.50
2019-05-19T02:49:23.365Z,16.50
2019-05-19T02:50:30.800Z,16.50
2019-05-19T02:51:36.723Z,16.50
2019-05-19T02:52:44.628Z,16.49
2019-05-19T02:53:50.741Z,16.47
2019-05-19T02:54:56.764Z,16.46
2019-05-19T02:56:05.113Z,16.44
2019-05-19T02:57:10.512Z,16.44
2019-05-19T02:58:17.042Z,16.42
2019-05-19T02:59:23.207Z,16.40
2019-05-19T03:00:38.868Z,16.39
2019-05-19T03:02:21.434Z,16.39
2019-05-19T03:03:26.400Z,16.38
2019-05-19T03:04:32.565Z,16.34
2019-05-19T03:05:38.244Z,16.34
2019-05-19T03:06:43.796Z,16.32
2019-05-19T03:07:48.722Z,16.31
2019-05-19T03:08:54.210Z,16.29
2019-05-19T03:09:59.452Z,16.29
2019-05-19T03:11:05.270Z,16.28
2019-05-19T03:12:10.598Z,16.27
2019-05-19T03:13:16.183Z,16.27
2019-05-19T03:14:21.126Z,16.26
2019-05-19T03:15:26.626Z,16.26
2019-05-19T03:16:31.874Z,16.25
2019-05-19T03:17:37.920Z,16.24
2019-05-19T03:18:42.928Z,16.23
2019-05-19T03:19:48.414Z,16.21
2019-05-19T03:21:09.902Z,16.20
2019-05-19T03:22:01.083Z,16.18
2019-05-19T03:23:06.037Z,16.15
2019-05-19T03:24:13.289Z,16.14
2019-05-19T03:25:18.656Z,16.13
2019-05-19T03:47:05.264Z,16.07
2019-05-19T03:48:11.058Z,16.08
2019-05-19T03:49:16.299Z,16.10
2019-05-19T03:50:21.877Z,16.10
2019-05-19T03:51:31.346Z,16.09
2019-05-19T03:52:34.633Z,16.09
2019-05-19T03:53:39.885Z,16.08
2019-05-19T03:54:45.458Z,16.08
2019-05-19T03:55:50.913Z,16.09
2019-05-19T03:56:56.691Z,16.10
2019-05-19T03:58:01.662Z,16.10
2019-05-19T03:59:07.151Z,16.12
2019-05-19T04:00:13.428Z,16.14
2019-05-19T04:01:19.150Z,16.17
2019-05-19T04:02:24.101Z,16.18
2019-05-19T04:03:29.618Z,16.19
2019-05-19T04:04:34.576Z,16.20
2019-05-19T04:05:40.209Z,16.21
2019-05-19T04:06:45.164Z,16.23
2019-05-19T04:07:51.016Z,16.24
2019-05-19T04:08:56.283Z,16.24
2019-05-19T04:10:02.202Z,16.23
2019-05-19T04:11:10.378Z,16.22
2019-05-19T04:12:16.133Z,16.22
2019-05-19T04:13:21.450Z,16.21
2019-05-19T04:14:27.247Z,16.20
2019-05-19T04:15:32.854Z,16.19
2019-05-19T04:16:38.617Z,16.20
2019-05-19T04:17:43.795Z,16.20
2019-05-19T04:18:49.369Z,16.22
2019-05-19T04:19:54.374Z,16.24
2019-05-19T04:21:00.182Z,16.25
2019-05-19T04:22:05.180Z,16.26
2019-05-19T04:23:10.760Z,16.27
2019-05-19T04:24:15.926Z,16.28
2019-05-19T04:25:22.044Z,16.30
2019-05-19T04:26:26.983Z,16.33
2019-05-19T04:27:32.501Z,16.35
2019-05-19T04:28:37.449Z,16.38
2019-05-19T04:29:43.070Z,16.41
2019-05-19T04:30:48.438Z,16.43
2019-05-19T04:31:53.945Z,16.44
2019-05-19T04:32:59.127Z,16.45
2019-05-19T04:34:04.781Z,16.45
2019-05-19T04:35:09.870Z,16.46
2019-05-19T04:36:15.391Z,16.47
2019-05-19T04:37:20.390Z,16.47
2019-05-19T04:38:25.884Z,16.49
2019-05-19T04:39:30.898Z,16.51
2019-05-19T04:40:36.643Z,16.52
2019-05-19T04:41:41.603Z,16.54
2019-05-19T04:42:47.377Z,16.55
2019-05-19T04:43:52.358Z,16.55
2019-05-19T04:44:58.162Z,16.56
2019-05-19T04:46:03.122Z,16.56
2019-05-19T04:47:08.649Z,16.57
2019-05-19T04:48:13.694Z,16.59
2019-05-19T04:49:19.222Z,16.60
2019-05-19T04:50:24.334Z,16.62
2019-05-19T04:51:29.907Z,16.63
2019-05-19T04:52:35.695Z,16.64
2019-05-19T04:53:41.499Z,16.66
2019-05-19T04:54:46.686Z,16.68
2019-05-19T04:55:52.470Z,16.68
2019-05-19T04:56:57.393Z,16.68
2019-05-19T04:58:04.326Z,16.68
2019-05-19T04:59:09.176Z,16.69
2019-05-19T05:00:15.649Z,16.68
2019-05-19T05:01:20.791Z,16.69
2019-05-19T05:02:26.338Z,16.68
2019-05-19T05:03:31.532Z,16.69
2019-05-19T05:04:37.365Z,16.69
2019-05-19T05:05:42.572Z,16.69
2019-05-19T05:06:49.815Z,16.69
2019-05-19T05:07:55.524Z,16.68
2019-05-19T05:09:01.382Z,16.69
2019-05-19T05:10:07.820Z,16.68
2019-05-19T05:11:13.618Z,16.69
2019-05-19T05:12:18.659Z,16.71
2019-05-19T05:13:24.492Z,16.71
2019-05-19T05:14:30.039Z,16.72
2019-05-19T05:15:35.523Z,16.73
2019-05-19T05:16:40.558Z,16.72
2019-05-19T05:17:46.552Z,16.73
2019-05-19T05:18:51.505Z,16.74
2019-05-19T05:19:57.071Z,16.74
2019-05-19T05:21:02.007Z,16.74
2019-05-19T05:22:21.240Z,16.74
2019-05-19T05:23:14.248Z,16.74
2019-05-19T05:24:20.260Z,16.75
2019-05-19T05:25:25.263Z,16.74
2019-05-19T05:26:30.844Z,16.74
2019-05-19T05:27:36.059Z,16.74
2019-05-19T05:28:41.892Z,16.75
2019-05-19T05:29:46.910Z,16.76
2019-05-19T05:30:52.717Z,16.77
2019-05-19T05:31:58.068Z,16.78
2019-05-19T05:33:03.679Z,16.80
2019-05-19T05:34:08.757Z,16.82
2019-05-19T05:35:14.387Z,16.83
2019-05-19T05:36:19.523Z,16.83
2019-05-19T05:37:25.019Z,16.85
2019-05-19T05:38:30.005Z,16.85
2019-05-19T05:39:35.499Z,16.87
2019-05-19T05:40:40.676Z,16.89
2019-05-19T05:41:46.293Z,16.92
2019-05-19T05:42:51.512Z,16.93
2019-05-19T05:43:57.097Z,16.95
2019-05-19T05:45:02.286Z,16.98
2019-05-19T05:46:07.854Z,17.01
2019-05-19T05:47:13.027Z,17.02
2019-05-19T05:48:18.744Z,17.05
2019-05-19T05:49:23.671Z,17.07
2019-05-19T05:50:29.745Z,17.09
2019-05-19T05:51:35.044Z,17.12
2019-05-19T05:52:40.888Z,17.15
2019-05-19T05:53:45.907Z,17.17
2019-05-19T05:54:51.505Z,17.22
2019-05-19T05:55:56.807Z,17.25
2019-05-19T05:57:02.553Z,17.26
2019-05-19T05:58:07.568Z,17.30
2019-05-19T05:59:13.051Z,17.34
2019-05-19T06:00:19.431Z,17.38
2019-05-19T06:01:25.292Z,17.40
2019-05-19T06:02:30.308Z,17.43
2019-05-19T06:03:35.866Z,17.46
2019-05-19T06:04:41.131Z,17.49
2019-05-19T06:05:46.759Z,17.49
2019-05-19T06:06:51.708Z,17.51
2019-05-19T06:07:57.240Z,17.54
2019-05-19T06:09:02.532Z,17.57
2019-05-19T06:10:09.206Z,17.59
2019-05-19T06:11:14.585Z,17.61
2019-05-19T06:12:20.271Z,17.63
2019-05-19T06:13:25.301Z,17.64
2019-05-19T06:14:30.876Z,17.69
2019-05-19T06:15:36.128Z,17.70
2019-05-19T06:16:42.180Z,17.72
2019-05-19T06:17:47.183Z,17.74
2019-05-19T06:18:52.712Z,17.79
2019-05-19T06:19:57.687Z,17.83
2019-05-19T06:21:03.431Z,17.88
2019-05-19T06:33:40.117Z,18.24
2019-05-19T06:34:46.031Z,18.26
2019-05-19T06:35:51.158Z,18.26
2019-05-19T06:36:57.164Z,18.28
2019-05-19T06:38:02.905Z,18.29
2019-05-19T06:39:09.006Z,18.29
2019-05-19T06:40:14.267Z,18.29
2019-05-19T06:41:19.863Z,18.30
2019-05-19T06:42:24.792Z,18.30
2019-05-19T06:43:30.308Z,18.31
2019-05-19T06:44:35.196Z,18.30
2019-05-19T06:45:40.773Z,18.30
2019-05-19T06:46:45.707Z,18.32
2019-05-19T06:47:51.228Z,18.34
2019-05-19T06:48:56.464Z,18.37
2019-05-19T06:50:02.395Z,18.42
2019-05-19T06:51:07.400Z,18.49
2019-05-19T06:52:12.965Z,18.56
2019-05-19T06:53:18.252Z,18.63
2019-05-19T06:54:23.735Z,18.71
2019-05-19T06:55:28.724Z,18.77
2019-05-19T06:56:34.184Z,18.81
2019-05-19T06:57:39.112Z,18.84
2019-05-19T06:58:44.611Z,18.86
2019-05-19T06:59:49.584Z,18.86
2019-05-19T07:00:55.113Z,18.87
2019-05-19T07:02:00.090Z,18.88
2019-05-19T07:03:05.665Z,18.89
2019-05-19T07:04:10.673Z,18.92
2019-05-19T07:05:16.326Z,18.94
2019-05-19T07:06:21.566Z,18.97
2019-05-19T07:07:27.050Z,19.02
2019-05-19T07:08:32.464Z,19.07
2019-05-19T07:09:38.115Z,19.12
2019-05-19T07:10:43.207Z,19.17
2019-05-19T07:11:48.868Z,19.22
2019-05-19T07:12:54.053Z,19.28
2019-05-19T07:14:02.897Z,19.32
2019-05-19T07:15:07.504Z,19.37
2019-05-19T07:16:13.233Z,19.41
2019-05-19T07:17:18.157Z,19.42
2019-05-19T07:18:23.747Z,19.43
2019-05-19T07:19:28.798Z,19.44
2019-05-19T07:20:34.392Z,19.44
2019-05-19T07:21:39.666Z,19.44
2019-05-19T07:22:45.165Z,19.46
2019-05-19T07:23:50.167Z,19.45
2019-05-19T07:24:56.631Z,19.44
2019-05-19T07:26:01.593Z,19.42
2019-05-19T07:27:09.986Z,19.42
2019-05-19T07:28:15.244Z,19.43
2019-05-19T07:29:20.844Z,19.44
2019-05-19T07:30:26.169Z,19.45
2019-05-19T07:31:32.253Z,19.44
2019-05-19T07:32:37.259Z,19.46
2019-05-19T07:33:43.391Z,19.46
2019-05-19T07:34:48.654Z,19.48
2019-05-19T07:35:54.150Z,19.49
2019-05-19T07:36:59.418Z,19.49
2019-05-19T07:38:07.435Z,19.50
2019-05-19T07:39:12.024Z,19.52
2019-05-19T07:40:17.708Z,19.54
2019-05-19T07:41:22.652Z,19.59
2019-05-19T07:42:28.240Z,19.63
2019-05-19T07:43:33.471Z,19.68
2019-05-19T07:44:39.479Z,19.76
2019-05-19T07:45:44.736Z,19.82
2019-05-19T07:46:50.207Z,19.86
2019-05-19T07:47:55.255Z,19.91
2019-05-19T07:49:01.012Z,19.95
2019-05-19T07:50:06.008Z,19.97
2019-05-19T07:51:11.747Z,19.97
2019-05-19T07:52:16.734Z,19.97
2019-05-19T07:53:22.243Z,19.97
2019-05-19T07:54:27.474Z,19.98
2019-05-19T07:55:33.026Z,19.99
2019-05-19T07:56:37.949Z,20.00
2019-05-19T07:57:43.700Z,19.99
2019-05-19T07:58:48.707Z,20.00
2019-05-19T07:59:54.201Z,20.00
2019-05-19T08:00:59.267Z,20.01
2019-05-19T08:02:04.902Z,20.02
2019-05-19T08:03:09.912Z,20.04
2019-05-19T08:04:15.439Z,20.06
2019-05-19T08:05:20.498Z,20.10
2019-05-19T08:06:26.227Z,20.12
2019-05-19T08:07:31.523Z,20.14
2019-05-19T08:08:37.009Z,20.14
2019-05-19T08:09:42.263Z,20.16
2019-05-19T08:10:47.771Z,20.17
2019-05-19T08:11:52.765Z,20.19
2019-05-19T08:12:58.245Z,20.20
2019-05-19T08:14:03.335Z,20.20
2019-05-19T08:15:09.609Z,20.23
2019-05-19T08:16:14.608Z,20.28
2019-05-19T08:17:20.189Z,20.29
2019-05-19T08:18:25.624Z,20.31
2019-05-19T08:19:31.138Z,20.30
2019-05-19T08:20:36.188Z,20.30
2019-05-19T08:21:41.740Z,20.32
2019-05-19T08:22:46.781Z,20.34
2019-05-19T08:24:00.360Z,20.36
2019-05-19T08:24:59.915Z,20.38
2019-05-19T08:26:06.127Z,20.40
2019-05-19T08:27:11.149Z,20.39
2019-05-19T08:28:16.700Z,20.38
2019-05-19T08:29:21.944Z,20.39
2019-05-19T08:30:27.485Z,20.40
2019-05-19T08:31:33.072Z,20.41
2019-05-19T08:32:38.656Z,20.44
2019-05-19T08:33:43.869Z,20.48
2019-05-19T08:34:49.398Z,20.56
2019-05-19T08:35:54.435Z,20.62
2019-05-19T08:37:00.178Z,20.69
2019-05-19T08:38:05.211Z,20.75
2019-05-19T08:39:10.873Z,20.80
2019-05-19T08:40:16.307Z,20.86
2019-05-19T08:41:22.086Z,20.90
2019-05-19T08:42:27.018Z,20.92
2019-05-19T08:43:32.556Z,20.93
2019-05-19T08:44:37.750Z,20.92
2019-05-19T08:45:43.285Z,20.94
2019-05-19T08:46:48.317Z,20.96
2019-05-19T08:47:53.798Z,20.99
2019-05-19T08:48:58.727Z,21.05
2019-05-19T08:50:04.553Z,21.16
2019-05-19T08:51:09.824Z,21.25
2019-05-19T08:52:15.340Z,21.34
2019-05-19T08:53:20.336Z,21.43
2019-05-19T08:54:26.152Z,21.48
2019-05-19T08:55:31.167Z,21.54
2019-05-19T08:56:36.816Z,21.56
2019-05-19T08:57:41.823Z,21.55
2019-05-19T08:58:47.614Z,21.55
2019-05-19T08:59:52.640Z,21.56
2019-05-19T09:00:58.152Z,21.54
2019-05-19T09:02:03.142Z,21.53
2019-05-19T09:03:08.917Z,21.51
2019-05-19T09:04:13.840Z,21.49
2019-05-19T09:05:19.576Z,21.48
2019-05-19T09:06:24.634Z,21.48
2019-05-19T09:07:30.390Z,21.49
2019-05-19T09:08:35.658Z,21.50
2019-05-19T09:09:41.237Z,21.52
2019-05-19T09:10:46.355Z,21.54
2019-05-19T09:11:51.829Z,21.59
2019-05-19T09:12:57.282Z,21.64
2019-05-19T09:14:03.164Z,21.68
2019-05-19T09:15:08.728Z,21.72
2019-05-19T09:16:14.309Z,21.76
2019-05-19T09:17:19.268Z,21.79
2019-05-19T09:18:24.735Z,21.81
2019-05-19T09:19:29.860Z,21.83
2019-05-19T09:20:35.536Z,21.81
2019-05-19T09:21:40.527Z,21.85
2019-05-19T09:22:46.065Z,21.87
2019-05-19T09:23:51.514Z,21.88
2019-05-19T09:24:56.999Z,21.88
2019-05-19T09:26:01.976Z,21.89
2019-05-19T09:27:07.683Z,21.92
2019-05-19T09:28:12.704Z,21.93
2019-05-19T09:29:18.241Z,21.95
2019-05-19T09:30:23.264Z,21.97
2019-05-19T09:31:29.199Z,21.99
2019-05-19T09:32:34.243Z,22.02
2019-05-19T09:33:39.743Z,22.02
2019-05-19T09:34:44.680Z,22.02
2019-05-19T09:35:50.191Z,22.03
2019-05-19T09:36:55.187Z,22.05
2019-05-19T09:38:00.980Z,22.06
2019-05-19T09:39:07.131Z,22.08
2019-05-19T09:40:13.156Z,22.09
2019-05-19T09:41:18.093Z,22.11
2019-05-19T09:42:23.999Z,22.10
2019-05-19T09:43:28.975Z,22.10
2019-05-19T09:44:34.726Z,22.12
2019-05-19T09:45:39.653Z,22.13
2019-05-19T09:46:45.152Z,22.16
2019-05-19T09:47:50.348Z,22.18
2019-05-19T09:49:14.606Z,22.20
2019-05-19T09:50:19.972Z,22.23
2019-05-19T09:51:25.629Z,22.27
2019-05-19T09:52:30.681Z,22.29
2019-05-19T09:53:36.423Z,22.29
2019-05-19T09:54:45.466Z,22.32
2019-05-19T09:55:49.238Z,22.34
2019-05-19T09:56:54.181Z,22.37
2019-05-19T09:57:59.923Z,22.42
2019-05-19T09:59:05.019Z,22.47
2019-05-19T10:00:13.163Z,22.56
2019-05-19T10:01:18.097Z,22.63
2019-05-19T10:02:23.956Z,22.71
2019-05-19T10:03:28.880Z,22.78
2019-05-19T10:04:34.890Z,22.82
2019-05-19T10:05:40.092Z,22.87
2019-05-19T10:06:45.596Z,22.94
2019-05-19T10:07:50.780Z,23.00
2019-05-19T10:09:14.685Z,23.07
2019-05-19T10:10:22.969Z,23.12
2019-05-19T10:11:52.482Z,23.20
2019-05-19T10:12:57.426Z,23.23
2019-05-19T10:14:03.240Z,23.23
2019-05-19T10:15:09.053Z,23.21
2019-05-19T10:16:14.631Z,23.20
2019-05-19T10:17:20.049Z,23.23
2019-05-19T10:18:25.700Z,23.27
2019-05-19T10:19:30.866Z,23.29
2019-05-19T10:20:36.428Z,23.35
2019-05-19T10:21:41.461Z,23.36
2019-05-19T10:22:47.231Z,23.40
2019-05-19T10:23:52.164Z,23.43
2019-05-19T10:25:18.121Z,23.46
2019-05-19T10:26:04.463Z,23.48
2019-05-19T10:27:10.185Z,23.48
2019-05-19T10:28:15.252Z,23.48
2019-05-19T10:29:20.844Z,23.49
2019-05-19T10:30:25.841Z,23.50
2019-05-19T10:31:31.638Z,23.55
2019-05-19T10:32:37.281Z,23.60
2019-05-19T10:33:42.769Z,23.65
2019-05-19T10:34:47.712Z,23.70
2019-05-19T10:35:53.503Z,23.72
2019-05-19T10:36:58.671Z,23.76
2019-05-19T10:38:04.918Z,23.81
2019-05-19T10:39:09.951Z,23.81
2019-05-19T10:40:15.751Z,23.80
2019-05-19T10:41:20.833Z,23.79
2019-05-19T10:42:26.565Z,23.78
2019-05-19T10:43:31.772Z,23.76
2019-05-19T10:44:37.319Z,23.79
2019-05-19T10:45:44.004Z,23.79
2019-05-19T10:46:49.624Z,23.82
2019-05-19T10:47:54.577Z,23.80
2019-05-19T10:49:00.299Z,23.79
2019-05-19T10:50:05.361Z,23.75
2019-05-19T10:51:11.255Z,23.72
2019-05-19T10:52:16.876Z,23.69
2019-05-19T10:53:22.597Z,23.66
2019-05-19T10:54:27.603Z,23.65
2019-05-19T10:55:36.636Z,23.66
2019-05-19T10:56:39.912Z,23.67
2019-05-19T10:57:45.434Z,23.67
2019-05-19T10:58:50.445Z,23.66
2019-05-19T10:59:55.938Z,23.68
2019-05-19T11:01:00.921Z,23.69
2019-05-19T11:02:06.560Z,23.70
2019-05-19T11:03:11.556Z,23.69
2019-05-19T11:04:17.289Z,23.68
2019-05-19T11:05:22.578Z,23.66
2019-05-19T11:06:28.064Z,23.65
2019-05-19T11:07:33.255Z,23.66
2019-05-19T11:08:39.002Z,23.69
2019-05-19T11:09:44.504Z,23.71
2019-05-19T11:10:50.091Z,23.70
2019-05-19T11:11:55.072Z,23.69
2019-05-19T11:13:00.578Z,23.69
2019-05-19T11:14:05.659Z,23.67
2019-05-19T11:15:11.420Z,23.68
2019-05-19T11:16:16.476Z,23.71
2019-05-19T11:17:22.000Z,23.74
2019-05-19T11:18:27.297Z,23.75
2019-05-19T11:19:32.985Z,23.76
2019-05-19T11:20:38.516Z,23.77
2019-05-19T11:21:44.337Z,23.79
2019-05-19T11:22:49.257Z,23.81
2019-05-19T11:23:55.172Z,23.82
2019-05-19T11:25:00.422Z,23.83
2019-05-19T11:26:06.303Z,23.83
2019-05-19T11:27:11.553Z,23.83
2019-05-19T11:28:17.060Z,23.85
2019-05-19T11:29:22.304Z,23.86
2019-05-19T11:30:27.848Z,23.88
2019-05-19T11:31:33.139Z,23.89
2019-05-19T11:32:38.894Z,23.93
2019-05-19T11:33:43.827Z,23.96
2019-05-19T11:34:49.342Z,24.02
2019-05-19T11:35:54.302Z,24.05
2019-05-19T11:36:59.901Z,24.08
2019-05-19T11:38:05.147Z,24.09
2019-05-19T11:39:11.004Z,24.08
2019-05-19T11:40:16.055Z,24.09
2019-05-19T11:41:21.585Z,24.12
2019-05-19T11:42:26.509Z,24.14
2019-05-19T11:43:32.228Z,24.18
2019-05-19T11:44:37.406Z,24.21
2019-05-19T11:45:43.212Z,24.23
2019-05-19T11:46:48.186Z,24.28
2019-05-19T11:47:53.803Z,24.29
2019-05-19T11:48:59.037Z,24.30
2019-05-19T11:50:05.126Z,24.32
2019-05-19T11:51:10.139Z,24.35
2019-05-19T11:52:16.178Z,24.40
2019-05-19T11:53:21.624Z,24.44
2019-05-19T11:54:27.121Z,24.48
2019-05-19T11:55:32.525Z,24.49
2019-05-19T11:56:38.352Z,24.50
2019-05-19T11:57:43.317Z,24.52
2019-05-19T11:58:48.826Z,24.53
2019-05-19T11:59:54.316Z,24.54
2019-05-19T12:01:00.275Z,24.54
2019-05-19T12:02:05.275Z,24.54
2019-05-19T12:03:10.815Z,24.54
2019-05-19T12:04:15.758Z,24.55
2019-05-19T12:05:21.373Z,24.54
2019-05-19T12:06:38.535Z,24.55
2019-05-19T12:07:34.047Z,24.57
2019-05-19T12:08:39.306Z,24.58
2019-05-19T12:09:45.121Z,24.56
2019-05-19T12:10:50.088Z,24.56
2019-05-19T12:11:55.589Z,24.55
2019-05-19T12:13:00.685Z,24.55
2019-05-19T12:14:06.308Z,24.54
2019-05-19T12:15:11.763Z,24.52
2019-05-19T12:16:17.394Z,24.51
2019-05-19T12:17:22.738Z,24.49
2019-05-19T12:18:28.344Z,24.45
2019-05-19T12:19:33.365Z,24.43
2019-05-19T12:20:38.898Z,24.43
2019-05-19T12:21:44.243Z,24.45
2019-05-19T12:22:49.803Z,24.49
2019-05-19T12:23:55.077Z,24.53
2019-05-19T12:25:00.657Z,24.57
2019-05-19T12:26:06.904Z,24.60
2019-05-19T12:27:12.884Z,24.66
2019-05-19T12:28:18.065Z,24.66
2019-05-19T12:29:23.547Z,24.66
2019-05-19T12:30:28.628Z,24.66
2019-05-19T12:31:34.161Z,24.63
2019-05-19T12:32:39.449Z,24.62
2019-05-19T12:33:51.977Z,24.60
2019-05-19T12:34:51.897Z,24.59
2019-05-19T12:35:57.791Z,24.60
2019-05-19T12:37:02.695Z,24.60
2019-05-19T12:38:08.230Z,24.60
2019-05-19T12:39:13.494Z,24.61
2019-05-19T12:40:22.475Z,24.62
2019-05-19T12:41:25.813Z,24.66
2019-05-19T12:42:31.271Z,24.70
2019-05-19T12:43:36.281Z,24.75
2019-05-19T12:44:41.861Z,24.81
2019-05-19T12:45:46.800Z,24.84
2019-05-19T12:46:52.275Z,24.86
2019-05-19T12:47:57.433Z,24.86
2019-05-19T12:49:03.005Z,24.87
2019-05-19T12:50:08.513Z,24.86
2019-05-19T12:51:14.088Z,24.84
2019-05-19T12:52:19.142Z,24.82
2019-05-19T12:53:24.735Z,24.80
2019-05-19T12:54:30.164Z,24.78
2019-05-19T12:55:35.711Z,24.78
2019-05-19T12:56:40.947Z,24.79
2019-05-19T12:57:46.507Z,24.80
2019-05-19T12:58:51.509Z,24.80
2019-05-19T12:59:57.060Z,24.81
2019-05-19T13:01:01.997Z,24.82
2019-05-19T13:02:07.803Z,24.83
2019-05-19T13:03:12.714Z,24.84
2019-05-19T13:04:19.014Z,24.87
2019-05-19T13:05:24.027Z,24.91
2019-05-19T13:06:30.159Z,24.93
2019-05-19T13:07:35.179Z,24.95
2019-05-19T13:08:40.775Z,24.98
2019-05-19T13:09:46.031Z,25.04
2019-05-19T13:10:51.510Z,25.09
2019-05-19T13:11:56.667Z,25.12
2019-05-19T13:13:02.489Z,25.17
2019-05-19T13:14:07.609Z,25.19
2019-05-19T13:15:15.577Z,25.22
2019-05-19T13:16:20.073Z,25.26
2019-05-19T13:17:25.656Z,25.29
2019-05-19T13:18:30.849Z,25.31
2019-05-19T13:19:36.587Z,25.32
2019-05-19T13:20:41.533Z,25.31
2019-05-19T13:21:47.255Z,25.33
2019-05-19T13:22:52.154Z,25.34
2019-05-19T13:23:58.425Z,25.34
2019-05-19T13:25:03.439Z,25.32
2019-05-19T13:26:09.061Z,25.30
2019-05-19T13:27:14.016Z,25.28
2019-05-19T13:30:35.456Z,25.30
2019-05-19T13:31:40.984Z,25.34
2019-05-19T13:32:45.923Z,25.36
2019-05-19T13:33:51.608Z,25.39
2019-05-19T13:34:56.782Z,25.42
2019-05-19T13:36:02.322Z,25.44
2019-05-19T13:37:07.361Z,25.46
2019-05-19T13:38:13.070Z,25.47
2019-05-19T13:39:18.192Z,25.50
2019-05-19T13:40:23.820Z,25.50
2019-05-19T13:41:29.007Z,25.48
2019-05-19T13:42:34.443Z,25.48
2019-05-19T13:43:39.405Z,25.52
2019-05-19T13:44:45.098Z,25.54
2019-05-19T13:45:50.018Z,25.57
2019-05-19T13:46:55.715Z,25.59
2019-05-19T13:48:00.855Z,25.60
2019-05-19T13:49:06.368Z,25.63
2019-05-19T13:50:11.719Z,25.65
2019-05-19T13:51:17.167Z,25.64
2019-05-19T13:52:22.051Z,25.64
2019-05-19T13:53:27.743Z,25.64
2019-05-19T13:54:32.728Z,25.66
2019-05-19T13:55:38.497Z,25.68
2019-05-19T13:56:43.650Z,25.72
2019-05-19T13:57:49.178Z,25.74
2019-05-19T13:58:54.164Z,25.75
2019-05-19T13:59:59.857Z,25.77
2019-05-19T14:01:05.270Z,25.77
2019-05-19T14:02:10.791Z,25.72
2019-05-19T14:03:15.859Z,25.67
2019-05-19T14:04:21.320Z,25.59
2019-05-19T14:05:26.248Z,25.50
2019-05-19T14:06:31.826Z,25.38
2019-05-19T14:07:37.056Z,25.26
2019-05-19T14:08:42.772Z,25.12
2019-05-19T14:09:47.678Z,24.99
2019-05-19T14:10:53.145Z,24.84
2019-05-19T14:11:58.170Z,24.69
2019-05-19T14:13:03.714Z,24.50
2019-05-19T14:14:08.694Z,24.24
2019-05-19T14:15:14.665Z,24.02
2019-05-19T14:16:19.917Z,23.81
2019-05-19T14:17:25.452Z,23.60
2019-05-19T14:18:30.399Z,23.42
2019-05-19T14:19:35.909Z,23.25
2019-05-19T14:20:41.170Z,23.07
2019-05-19T14:21:46.791Z,22.93
2019-05-19T14:22:51.760Z,22.84
2019-05-19T14:23:57.230Z,22.74
2019-05-19T14:25:02.309Z,22.68
2019-05-19T14:26:07.991Z,22.63
2019-05-19T14:27:17.146Z,22.57
2019-05-19T14:28:20.408Z,22.53
2019-05-19T14:29:25.400Z,22.48
2019-05-19T14:30:30.906Z,22.44
2019-05-19T14:31:36.055Z,22.42
2019-05-19T14:32:41.550Z,22.38
2019-05-19T14:33:46.471Z,22.33
2019-05-19T14:34:52.168Z,22.31
2019-05-19T14:35:57.357Z,22.30
2019-05-19T14:37:02.926Z,22.29
2019-05-19T14:38:08.064Z,22.27
2019-05-19T14:39:13.550Z,22.23
2019-05-19T14:40:20.329Z,22.23